ナント の空港の天気 - METARとTAF

ナント空港 ( LFRS / NTE ) - フランス ナント
飛行場実況気象(Metar)
観測時間01/16 19:00 CET (01/16 18:00 UTC)
風向・風速南西 4m/s
視程8000m
天気現象
少しの雲 雲底高度 880m
全天の4割程度の雲 雲底高度 1040m
全天を覆う雲 雲底高度 2320m
気温7℃
湿度93%
気圧1034hPa
METARLFRS 161800Z AUTO 23007KT 8000 FEW029 SCT034 OVC076 07/06 Q1034 BECMG 3000 BR
過去の天気等 Google飛行場航空写真 Wunderground天気予報

過去48時間のMETAR

飛行場予報(TAF)
発表時間: 1/16 18:00 CET (1/16 17:00 UTC)
予報対象時間: 16日19時 CET ~ 18日1時 CET
風向・風速南南西 3m/s
視程10km以上
全天の8割程度の雲 雲底高度 910m
16日19時 CET ~ 16日21時 CET に徐々に
視程3000m
天気現象もや
16日21時 CET ~ 16日24時 CET に 確率 30% で一時的に
視程500m
天気現象
17日0時 CET ~ 17日2時 CET に徐々に
視程500m
天気現象
17日10時 CET ~ 17日12時 CET に徐々に
視程1500m
天気現象もや
全天の8割程度の雲 雲底高度 60m
17日12時 CET ~ 17日14時 CET に徐々に
視程3500m
天気現象もや
全天の8割程度の雲 雲底高度 90m
17日15時 CET ~ 17日17時 CET に徐々に
視程10km以上
天気現象運行に影響にある天気現象が終了
全天の8割程度の雲 雲底高度 300m
17日23時 CET ~ 18日1時 CET に徐々に
風向・風速東 5m/s
TAF LFRS 161700Z 1618/1724 20005KT 9999 BKN030
BECMG 1618/1620 3000 BR
PROB30 TEMPO 1620/1623 0500 FG VV///
BECMG 1623/1701 0500 FG VV///
BECMG 1709/1711 1500 BR BKN002
BECMG 1711/1713 3500 BR BKN003
BECMG 1714/1716 9999 NSW BKN010
BECMG 1722/1724 08010KT